createdAt,value
2018-08-13T00:02:09.603Z,22.81
2018-08-13T00:05:34.048Z,23.14
2018-08-13T00:08:58.536Z,23.41
2018-08-13T00:12:23.027Z,23.57
2018-08-13T00:15:47.472Z,23.76
2018-08-13T00:19:11.859Z,23.84
2018-08-13T00:22:36.277Z,23.79
2018-08-13T00:26:00.699Z,24.06
2018-08-13T00:29:25.271Z,24.10
2018-08-13T00:32:49.724Z,24.21
2018-08-13T00:36:14.137Z,24.21
2018-08-13T00:39:38.524Z,24.13
2018-08-13T00:43:02.996Z,24.29
2018-08-13T00:49:50.880Z,24.26
2018-08-13T00:53:15.303Z,24.21
2018-08-13T00:56:39.714Z,24.12
2018-08-13T01:00:05.025Z,24.10
2018-08-13T01:03:29.443Z,23.99
2018-08-13T01:06:53.882Z,23.89
2018-08-13T01:10:21.973Z,23.84
2018-08-13T01:13:46.378Z,23.78
2018-08-13T01:17:10.877Z,23.73
2018-08-13T01:20:35.558Z,23.56
2018-08-13T01:23:59.949Z,23.45
2018-08-13T01:27:29.588Z,23.56
2018-08-13T01:30:54.062Z,23.20
2018-08-13T01:34:18.496Z,23.04
2018-08-13T01:37:42.951Z,22.75
2018-08-13T01:41:07.367Z,22.61
2018-08-13T01:44:31.783Z,22.38
2018-08-13T01:47:56.209Z,22.20
2018-08-13T01:51:20.664Z,21.86
2018-08-13T01:54:45.145Z,21.69
2018-08-13T01:58:09.583Z,21.53
2018-08-13T02:01:34.051Z,21.53
2018-08-13T02:04:58.462Z,21.87
2018-08-13T02:08:22.865Z,22.26
2018-08-13T02:11:47.308Z,22.46
2018-08-13T02:15:11.819Z,22.39
2018-08-13T02:18:36.237Z,22.45
2018-08-13T02:22:00.887Z,22.90
2018-08-13T02:25:25.312Z,23.13
2018-08-13T02:28:49.756Z,23.40
2018-08-13T02:32:14.204Z,23.55
2018-08-13T02:35:38.632Z,23.75
2018-08-13T02:39:03.165Z,23.82
2018-08-13T02:42:27.785Z,23.76
2018-08-13T02:45:52.249Z,24.00
2018-08-13T02:49:16.667Z,23.96
2018-08-13T02:52:41.314Z,23.94
2018-08-13T02:56:05.882Z,24.05
2018-08-13T02:59:30.316Z,24.15
2018-08-13T03:02:54.756Z,24.13
2018-08-13T03:06:19.212Z,24.23
2018-08-13T03:09:43.626Z,24.25
2018-08-13T03:13:08.126Z,24.26
2018-08-13T03:16:32.547Z,24.06
2018-08-13T03:19:57.519Z,23.94
2018-08-13T03:23:22.081Z,23.72
2018-08-13T03:26:46.560Z,23.52
2018-08-13T03:30:12.801Z,23.79
2018-08-13T03:33:37.398Z,23.51
2018-08-13T03:37:01.706Z,23.32
2018-08-13T03:40:26.162Z,23.07
2018-08-13T03:43:50.646Z,23.14
2018-08-13T03:47:15.176Z,23.02
2018-08-13T03:50:39.663Z,23.01
2018-08-13T03:54:04.148Z,23.02
2018-08-13T03:57:28.609Z,23.23
2018-08-13T04:00:53.104Z,23.12
2018-08-13T04:04:17.543Z,23.04
2018-08-13T04:07:41.995Z,23.04
2018-08-13T04:11:06.700Z,23.07
2018-08-13T04:14:31.230Z,22.84
2018-08-13T04:17:55.661Z,22.24
2018-08-13T04:21:20.110Z,21.89
2018-08-13T04:24:44.688Z,21.34
2018-08-13T04:28:09.083Z,20.50
2018-08-13T04:31:33.530Z,20.15
2018-08-13T04:34:58.184Z,19.92
2018-08-13T04:38:22.578Z,19.81
2018-08-13T04:41:46.965Z,19.56
2018-08-13T04:45:11.632Z,19.32
2018-08-13T04:48:36.076Z,19.41
2018-08-13T04:52:00.524Z,19.39
2018-08-13T04:55:24.954Z,19.34
2018-08-13T04:58:49.445Z,19.38
2018-08-13T05:02:13.924Z,19.35
2018-08-13T05:05:38.370Z,19.27
2018-08-13T05:09:06.695Z,19.35
2018-08-13T05:12:31.177Z,19.48
2018-08-13T05:15:55.625Z,19.34
2018-08-13T05:19:20.077Z,19.27
2018-08-13T05:22:44.532Z,19.35
2018-08-13T05:26:10.468Z,19.26
2018-08-13T05:29:34.960Z,19.40
2018-08-13T05:32:59.408Z,19.46
2018-08-13T05:36:23.829Z,19.63
2018-08-13T05:39:48.301Z,19.48
2018-08-13T05:43:12.761Z,19.46
2018-08-13T05:46:37.179Z,19.44
2018-08-13T05:50:01.607Z,19.32
2018-08-13T05:53:26.042Z,19.47
2018-08-13T05:56:50.460Z,19.40
2018-08-13T06:00:14.857Z,19.43
2018-08-13T06:03:39.302Z,19.49
2018-08-13T06:07:03.947Z,19.62
2018-08-13T06:10:28.353Z,19.58
2018-08-13T06:13:52.768Z,19.70
2018-08-13T06:17:17.206Z,19.66
2018-08-13T06:20:41.703Z,19.71
2018-08-13T06:24:06.256Z,19.81
2018-08-13T06:27:30.627Z,19.86
2018-08-13T06:30:55.090Z,19.82
2018-08-13T06:34:19.500Z,20.17
2018-08-13T06:37:44.622Z,19.97
2018-08-13T06:41:09.018Z,20.19
2018-08-13T06:44:33.448Z,20.23
2018-08-13T06:47:57.951Z,20.40
2018-08-13T06:51:22.444Z,20.80
2018-08-13T06:54:46.867Z,20.80
2018-08-13T06:58:11.338Z,20.60
2018-08-13T07:01:35.794Z,20.60
2018-08-13T07:05:00.227Z,20.85
2018-08-13T07:08:24.705Z,20.89
2018-08-13T07:11:49.128Z,20.54
2018-08-13T07:15:14.130Z,20.86
2018-08-13T07:18:38.627Z,20.96
2018-08-13T07:22:03.262Z,20.95
2018-08-13T07:25:27.643Z,20.87
2018-08-13T07:28:52.079Z,20.75
2018-08-13T07:32:16.516Z,20.97
2018-08-13T07:35:40.952Z,21.12
2018-08-13T07:39:08.907Z,21.29
2018-08-13T07:42:33.418Z,21.06
2018-08-13T07:45:57.870Z,21.37
2018-08-13T07:49:22.298Z,21.25
2018-08-13T07:52:46.705Z,21.21
2018-08-13T07:56:11.258Z,21.52
2018-08-13T07:59:35.745Z,21.43
2018-08-13T08:03:00.224Z,21.50
2018-08-13T08:06:24.686Z,21.72
2018-08-13T08:09:49.198Z,21.58
2018-08-13T08:13:13.720Z,21.65
2018-08-13T08:16:38.384Z,21.72
2018-08-13T08:20:03.425Z,21.97
2018-08-13T08:23:29.566Z,22.05
2018-08-13T08:26:54.092Z,21.93
2018-08-13T08:30:18.536Z,22.11
2018-08-13T08:33:42.996Z,21.75
2018-08-13T08:37:07.522Z,21.86
2018-08-13T08:40:32.089Z,21.73
2018-08-13T08:43:56.552Z,21.81
2018-08-13T08:47:21.032Z,21.81
2018-08-13T08:50:45.555Z,22.07
2018-08-13T08:54:11.393Z,22.26
2018-08-13T08:57:35.895Z,22.65
2018-08-13T09:01:00.383Z,23.02
2018-08-13T09:04:24.865Z,23.07
2018-08-13T09:07:49.459Z,23.58
2018-08-13T09:11:13.916Z,23.64
2018-08-13T09:14:38.369Z,24.28
2018-08-13T09:37:22.692Z,24.66
2018-08-13T09:40:47.131Z,24.61
2018-08-13T09:44:11.602Z,24.58
2018-08-13T09:47:36.248Z,24.71
2018-08-13T09:51:00.708Z,24.78
2018-08-13T09:54:25.180Z,25.77
2018-08-13T09:57:50.295Z,25.78
2018-08-13T10:01:14.659Z,25.53
2018-08-13T10:04:39.125Z,25.33
2018-08-13T10:08:03.622Z,25.30
2018-08-13T10:11:28.071Z,25.17
2018-08-13T10:14:52.561Z,25.20
2018-08-13T10:18:16.963Z,25.93
2018-08-13T10:21:41.344Z,26.33
2018-08-13T10:25:07.422Z,26.34
2018-08-13T10:28:31.880Z,26.42
2018-08-13T10:31:56.354Z,26.73
2018-08-13T10:35:20.759Z,27.17
2018-08-13T10:38:45.283Z,27.74
2018-08-13T10:42:09.775Z,27.22
2018-08-13T10:45:34.238Z,26.02
2018-08-13T10:48:58.702Z,25.37
2018-08-13T10:52:23.219Z,24.26
2018-08-13T10:55:47.625Z,23.60
2018-08-13T10:59:12.032Z,23.69
2018-08-13T11:02:36.466Z,23.36
2018-08-13T11:06:00.896Z,23.14
2018-08-13T11:09:25.327Z,23.04
2018-08-13T11:12:49.745Z,23.13
2018-08-13T11:16:14.242Z,22.67
2018-08-13T11:19:38.685Z,22.52
2018-08-13T11:23:03.167Z,22.74
2018-08-13T11:26:27.678Z,23.15
2018-08-13T11:29:52.177Z,23.52
2018-08-13T11:33:16.702Z,23.16
2018-08-13T11:36:41.173Z,23.07
2018-08-13T11:40:13.321Z,23.13
2018-08-13T11:43:37.792Z,23.52
2018-08-13T11:47:02.271Z,23.91
2018-08-13T11:50:26.814Z,24.09
2018-08-13T11:53:51.389Z,25.33
2018-08-13T11:57:15.853Z,26.35
2018-08-13T12:00:40.365Z,25.18
2018-08-13T12:04:04.875Z,24.45
2018-08-13T12:07:29.428Z,24.07
2018-08-13T12:10:53.985Z,23.24
2018-08-13T12:14:18.461Z,22.94
2018-08-13T12:17:43.277Z,22.68
2018-08-13T12:21:07.778Z,22.35
2018-08-13T12:24:32.323Z,22.36
2018-08-13T12:27:56.853Z,22.46
2018-08-13T12:31:21.384Z,22.45
2018-08-13T12:34:45.900Z,22.21
2018-08-13T12:38:10.504Z,21.61
2018-08-13T12:41:35.068Z,21.63
2018-08-13T12:44:59.544Z,22.07
2018-08-13T12:48:24.019Z,22.48
2018-08-13T12:51:48.505Z,23.35
2018-08-13T12:55:13.447Z,25.23
2018-08-13T12:58:37.947Z,26.02
2018-08-13T13:02:02.502Z,27.17
2018-08-13T13:05:26.985Z,27.21
2018-08-13T13:08:51.630Z,29.66
2018-08-13T13:12:16.072Z,31.99
2018-08-13T13:15:40.592Z,32.55
2018-08-13T13:19:05.130Z,33.48
2018-08-13T13:22:29.685Z,32.84
2018-08-13T13:25:54.382Z,32.41
2018-08-13T13:29:18.804Z,29.97
2018-08-13T13:32:43.581Z,28.06
2018-08-13T13:36:08.334Z,27.22
2018-08-13T13:39:32.882Z,26.58
2018-08-13T13:42:57.435Z,26.09
2018-08-13T13:46:22.000Z,25.89
2018-08-13T13:49:46.448Z,25.62
2018-08-13T13:53:10.887Z,24.74
2018-08-13T13:56:35.358Z,23.58
2018-08-13T13:59:59.823Z,22.34
2018-08-13T14:03:24.310Z,21.59
2018-08-13T14:06:48.748Z,21.37
2018-08-13T14:10:17.375Z,21.15
2018-08-13T14:13:41.864Z,21.17
2018-08-13T14:17:06.468Z,21.34
2018-08-13T14:20:30.978Z,21.16
2018-08-13T14:23:55.470Z,21.42
2018-08-13T14:27:19.948Z,21.95
2018-08-13T14:30:44.406Z,22.58
2018-08-13T14:34:08.869Z,22.74
2018-08-13T14:37:33.351Z,22.55
2018-08-13T14:40:57.788Z,22.24
2018-08-13T14:44:22.238Z,22.43
2018-08-13T14:47:48.133Z,22.42
2018-08-13T14:51:12.591Z,22.53
2018-08-13T14:54:36.995Z,23.21
2018-08-13T14:58:01.443Z,24.21
2018-08-13T15:01:25.952Z,24.16
2018-08-13T15:04:52.487Z,23.81
2018-08-13T15:08:16.981Z,23.98
2018-08-13T15:11:42.374Z,23.84
2018-08-13T15:15:09.834Z,23.76
2018-08-13T15:18:34.252Z,23.14
2018-08-13T15:21:58.715Z,22.95
2018-08-13T15:25:23.227Z,22.95
2018-08-13T15:28:47.670Z,22.94
2018-08-13T15:32:12.083Z,22.84
2018-08-13T15:35:36.544Z,22.68
2018-08-13T15:39:00.998Z,22.22
2018-08-13T15:42:25.478Z,21.67
2018-08-13T15:45:49.896Z,21.52
2018-08-13T15:49:14.331Z,21.64
2018-08-13T15:52:39.088Z,21.72
2018-08-13T15:56:03.500Z,21.38
2018-08-13T15:59:27.925Z,21.56
2018-08-13T16:02:52.546Z,21.89
2018-08-13T16:06:17.028Z,23.60
2018-08-13T16:09:41.776Z,25.80
2018-08-13T16:13:06.215Z,27.52
2018-08-13T16:16:30.648Z,27.91
2018-08-13T16:19:55.273Z,28.50
2018-08-13T16:23:19.745Z,28.87
2018-08-13T16:26:44.270Z,27.78
2018-08-13T16:30:26.244Z,27.41
2018-08-13T16:33:50.728Z,26.85
2018-08-13T16:37:15.177Z,26.94
2018-08-13T16:40:39.588Z,27.73
2018-08-13T16:44:04.103Z,28.13
2018-08-13T16:47:28.536Z,27.06
2018-08-13T16:50:53.006Z,26.10
2018-08-13T16:54:17.381Z,25.48
2018-08-13T16:57:42.595Z,25.09
2018-08-13T17:01:07.127Z,24.65
2018-08-13T17:04:31.529Z,24.70
2018-08-13T17:07:55.921Z,24.35
2018-08-13T17:11:20.383Z,24.35
2018-08-13T17:14:46.955Z,24.19
2018-08-13T17:18:11.605Z,24.09
2018-08-13T17:21:38.609Z,24.15
2018-08-13T17:25:04.124Z,23.95
2018-08-13T17:28:29.522Z,23.86
2018-08-13T17:31:55.227Z,23.82
2018-08-13T17:35:22.396Z,23.60
2018-08-13T17:38:46.981Z,23.37
2018-08-13T17:42:11.389Z,23.62
2018-08-13T17:45:35.848Z,23.61
2018-08-13T17:49:00.661Z,23.68
2018-08-13T17:52:25.124Z,23.51
2018-08-13T17:55:49.861Z,23.31
2018-08-13T17:59:17.079Z,23.24
2018-08-13T18:02:42.170Z,22.62
2018-08-13T18:06:07.316Z,22.41
2018-08-13T18:12:56.013Z,21.04
2018-08-13T18:16:21.490Z,20.90
2018-08-13T18:19:45.977Z,20.74
2018-08-13T18:23:10.530Z,20.94
2018-08-13T18:26:35.129Z,20.90
2018-08-13T18:30:00.977Z,20.83
2018-08-13T18:33:27.533Z,20.85
2018-08-13T18:36:52.077Z,20.61
2018-08-13T18:40:23.608Z,20.66
2018-08-13T18:43:48.045Z,20.57
2018-08-13T18:47:13.011Z,20.57
2018-08-13T18:50:37.557Z,20.41
2018-08-13T18:54:02.178Z,20.56
2018-08-13T18:57:26.712Z,20.36
2018-08-13T19:00:54.058Z,20.21
2018-08-13T19:04:18.580Z,20.13
2018-08-13T19:07:44.326Z,20.12
2018-08-13T19:11:09.732Z,20.09
2018-08-13T19:14:34.168Z,20.12
2018-08-13T19:17:58.648Z,20.16
2018-08-13T19:21:23.196Z,20.09
2018-08-13T19:24:47.712Z,20.23
2018-08-13T19:28:12.204Z,20.24
2018-08-13T19:31:36.651Z,20.18
2018-08-13T19:35:01.137Z,19.97
2018-08-13T19:38:25.559Z,19.93
2018-08-13T19:41:50.085Z,19.91
2018-08-13T19:45:15.570Z,19.75
2018-08-13T19:48:39.974Z,19.88
2018-08-13T19:52:04.503Z,19.80
2018-08-13T19:55:28.943Z,20.06
2018-08-13T19:58:53.358Z,20.09
2018-08-13T20:02:17.900Z,20.05
2018-08-13T20:05:42.714Z,20.18
2018-08-13T20:09:10.088Z,20.07
2018-08-13T20:12:34.558Z,20.04
2018-08-13T20:15:58.984Z,19.99
2018-08-13T20:19:23.467Z,19.98
2018-08-13T20:22:48.424Z,19.93
2018-08-13T20:26:12.888Z,19.83
2018-08-13T20:29:37.358Z,19.79
2018-08-13T20:33:02.140Z,19.83
2018-08-13T20:36:26.620Z,19.65
2018-08-13T20:40:08.368Z,19.62
2018-08-13T20:43:32.969Z,19.53
2018-08-13T20:46:57.827Z,19.63
2018-08-13T20:50:24.750Z,19.64
2018-08-13T20:53:49.235Z,19.60
2018-08-13T20:57:13.921Z,19.73
2018-08-13T21:00:38.421Z,19.74
2018-08-13T21:04:02.927Z,19.76
2018-08-13T21:07:27.471Z,19.79
2018-08-13T21:10:52.002Z,19.88
2018-08-13T21:14:16.416Z,19.73
2018-08-13T21:17:41.217Z,19.58
2018-08-13T21:21:05.827Z,19.32
2018-08-13T21:24:30.406Z,19.43
2018-08-13T21:27:55.076Z,19.39
2018-08-13T21:31:19.639Z,19.43
2018-08-13T21:34:44.212Z,19.24
2018-08-13T21:38:09.444Z,19.55
2018-08-13T21:41:33.968Z,19.56
2018-08-13T21:44:59.048Z,19.50
2018-08-13T21:48:23.560Z,19.55
2018-08-13T21:51:48.179Z,19.50
2018-08-13T21:55:12.928Z,19.58
2018-08-13T21:58:37.389Z,19.78
2018-08-13T22:02:01.975Z,19.67
2018-08-13T22:05:26.438Z,19.66
2018-08-13T22:08:50.927Z,19.79
2018-08-13T22:12:20.370Z,19.66
2018-08-13T22:15:44.915Z,19.56
2018-08-13T22:19:10.308Z,19.78
2018-08-13T22:22:34.749Z,19.71
2018-08-13T22:25:59.327Z,19.56
2018-08-13T22:29:23.816Z,19.49
2018-08-13T22:32:48.283Z,19.65
2018-08-13T22:36:12.927Z,19.66
2018-08-13T22:39:37.350Z,19.94
2018-08-13T22:43:02.036Z,19.95
2018-08-13T22:46:26.462Z,19.79
2018-08-13T22:49:50.921Z,19.58
2018-08-13T22:53:15.420Z,19.85
2018-08-13T22:56:39.916Z,19.98
2018-08-13T23:00:05.249Z,19.61
2018-08-13T23:03:29.721Z,19.64
2018-08-13T23:06:54.234Z,19.76
2018-08-13T23:10:20.520Z,19.83
2018-08-13T23:13:44.974Z,19.83
2018-08-13T23:17:09.429Z,19.76
2018-08-13T23:20:33.904Z,19.49
2018-08-13T23:23:58.516Z,19.44
2018-08-13T23:27:22.980Z,19.55
2018-08-13T23:30:47.479Z,19.58
2018-08-13T23:34:12.014Z,19.49
2018-08-13T23:37:36.509Z,19.47
2018-08-13T23:41:00.988Z,19.57
2018-08-13T23:44:25.501Z,19.63
2018-08-13T23:47:50.037Z,19.49
2018-08-13T23:51:14.526Z,19.49
2018-08-13T23:54:38.980Z,19.60
2018-08-13T23:58:04.611Z,19.35
